createdAt,value
2018-03-31T11:09:00.548Z,59.89
2018-03-31T11:11:28.037Z,57.92
2018-03-31T11:13:54.635Z,59.99
2018-03-31T11:16:21.565Z,56.53
2018-03-31T11:18:48.809Z,55.70
2018-03-31T11:21:15.337Z,58.52
2018-03-31T11:23:46.363Z,56.10
2018-03-31T11:26:12.919Z,56.95
2018-03-31T11:28:39.550Z,58.50
2018-03-31T11:31:06.021Z,57.23
2018-03-31T11:33:33.090Z,56.81
2018-03-31T11:36:00.431Z,54.55
2018-03-31T11:38:27.674Z,52.93
2018-03-31T11:40:55.204Z,55.18
2018-03-31T11:43:21.630Z,56.24
2018-03-31T11:45:48.914Z,56.62
2018-03-31T11:48:15.354Z,57.69
2018-03-31T11:50:42.567Z,55.23
2018-03-31T11:53:09.839Z,53.78
2018-03-31T11:55:38.537Z,54.39
2018-03-31T11:58:05.007Z,56.12
2018-03-31T12:00:31.462Z,51.75
2018-03-31T12:02:57.961Z,54.91
2018-03-31T12:05:24.422Z,54.53
2018-03-31T12:07:50.932Z,52.66
2018-03-31T12:10:17.425Z,52.49
2018-03-31T12:12:44.341Z,52.48
2018-03-31T12:15:11.898Z,52.51
2018-03-31T12:17:38.413Z,53.00
2018-03-31T12:20:05.736Z,54.81
2018-03-31T12:22:40.145Z,54.73
2018-03-31T12:25:08.152Z,51.97
2018-03-31T12:27:34.687Z,51.98
2018-03-31T12:30:03.345Z,53.52
2018-03-31T12:32:33.196Z,52.16
2018-03-31T12:35:00.635Z,52.07
2018-03-31T12:37:27.045Z,51.32
2018-03-31T12:39:53.451Z,51.35
2018-03-31T12:42:20.001Z,49.72
2018-03-31T12:44:50.152Z,50.84
2018-03-31T12:47:17.339Z,49.48
2018-03-31T12:49:48.786Z,49.83
2018-03-31T12:55:07.014Z,48.16
2018-03-31T12:57:34.156Z,50.74
